sensor_id;sensor_type;location;lat;lon;timestamp;P1;durP1;ratioP1;P2;durP2;ratioP2
5923;SDS011;2987;50.884;14.818;2023-02-15T00:01:32;40.57;;;26.93;;
5923;SDS011;2987;50.884;14.818;2023-02-15T00:03:59;38.50;;;25.23;;
5923;SDS011;2987;50.884;14.818;2023-02-15T00:06:26;40.27;;;25.43;;
5923;SDS011;2987;50.884;14.818;2023-02-15T00:08:53;43.57;;;27.43;;
5923;SDS011;2987;50.884;14.818;2023-02-15T00:11:20;43.23;;;26.63;;
5923;SDS011;2987;50.884;14.818;2023-02-15T00:14:08;39.90;;;25.23;;
5923;SDS011;2987;50.884;14.818;2023-02-15T00:16:37;45.47;;;27.73;;
5923;SDS011;2987;50.884;14.818;2023-02-15T00:19:06;44.93;;;26.87;;
5923;SDS011;2987;50.884;14.818;2023-02-15T00:21:35;47.80;;;28.80;;
5923;SDS011;2987;50.884;14.818;2023-02-15T00:24:03;48.37;;;30.17;;
5923;SDS011;2987;50.884;14.818;2023-02-15T00:26:30;51.27;;;30.87;;
5923;SDS011;2987;50.884;14.818;2023-02-15T00:28:57;51.83;;;31.67;;
5923;SDS011;2987;50.884;14.818;2023-02-15T00:31:29;53.03;;;31.87;;
5923;SDS011;2987;50.884;14.818;2023-02-15T00:34:01;53.90;;;32.27;;
5923;SDS011;2987;50.884;14.818;2023-02-15T00:36:30;51.17;;;30.93;;
5923;SDS011;2987;50.884;14.818;2023-02-15T00:38:56;56.97;;;32.57;;
5923;SDS011;2987;50.884;14.818;2023-02-15T00:41:22;57.27;;;33.73;;
5923;SDS011;2987;50.884;14.818;2023-02-15T00:43:49;63.20;;;35.07;;
5923;SDS011;2987;50.884;14.818;2023-02-15T00:46:18;60.57;;;35.20;;
5923;SDS011;2987;50.884;14.818;2023-02-15T00:48:45;68.93;;;36.67;;
5923;SDS011;2987;50.884;14.818;2023-02-15T00:51:11;63.90;;;37.33;;
5923;SDS011;2987;50.884;14.818;2023-02-15T00:53:37;69.80;;;37.63;;
5923;SDS011;2987;50.884;14.818;2023-02-15T00:56:03;70.17;;;37.00;;
5923;SDS011;2987;50.884;14.818;2023-02-15T00:58:30;72.93;;;39.47;;
5923;SDS011;2987;50.884;14.818;2023-02-15T01:01:02;73.23;;;38.97;;
5923;SDS011;2987;50.884;14.818;2023-02-15T01:03:31;75.53;;;38.97;;
5923;SDS011;2987;50.884;14.818;2023-02-15T01:05:57;76.73;;;39.57;;
5923;SDS011;2987;50.884;14.818;2023-02-15T01:08:23;78.47;;;40.30;;
5923;SDS011;2987;50.884;14.818;2023-02-15T01:10:49;77.33;;;41.03;;
5923;SDS011;2987;50.884;14.818;2023-02-15T01:13:16;78.23;;;41.13;;
5923;SDS011;2987;50.884;14.818;2023-02-15T01:15:43;75.23;;;38.60;;
5923;SDS011;2987;50.884;14.818;2023-02-15T01:18:10;72.50;;;39.57;;
5923;SDS011;2987;50.884;14.818;2023-02-15T01:20:38;76.00;;;38.97;;
5923;SDS011;2987;50.884;14.818;2023-02-15T01:23:06;74.57;;;39.83;;
5923;SDS011;2987;50.884;14.818;2023-02-15T01:25:33;69.07;;;39.17;;
5923;SDS011;2987;50.884;14.818;2023-02-15T01:28:00;75.50;;;38.87;;
5923;SDS011;2987;50.884;14.818;2023-02-15T01:30:28;71.93;;;38.93;;
5923;SDS011;2987;50.884;14.818;2023-02-15T01:32:55;74.77;;;39.33;;
5923;SDS011;2987;50.884;14.818;2023-02-15T01:35:21;76.50;;;40.60;;
5923;SDS011;2987;50.884;14.818;2023-02-15T01:37:48;74.87;;;39.10;;
5923;SDS011;2987;50.884;14.818;2023-02-15T01:40:15;78.70;;;41.50;;
5923;SDS011;2987;50.884;14.818;2023-02-15T01:42:43;70.50;;;38.90;;
5923;SDS011;2987;50.884;14.818;2023-02-15T01:45:20;72.23;;;40.20;;
5923;SDS011;2987;50.884;14.818;2023-02-15T01:47:54;76.23;;;40.23;;
5923;SDS011;2987;50.884;14.818;2023-02-15T01:50:43;78.33;;;39.87;;
5923;SDS011;2987;50.884;14.818;2023-02-15T01:53:14;71.23;;;39.43;;
5923;SDS011;2987;50.884;14.818;2023-02-15T02:00:46;71.73;;;39.53;;
5923;SDS011;2987;50.884;14.818;2023-02-15T02:03:13;74.70;;;40.33;;
5923;SDS011;2987;50.884;14.818;2023-02-15T02:05:40;70.10;;;38.43;;
5923;SDS011;2987;50.884;14.818;2023-02-15T02:08:06;72.63;;;38.97;;
5923;SDS011;2987;50.884;14.818;2023-02-15T02:10:35;71.80;;;37.50;;
5923;SDS011;2987;50.884;14.818;2023-02-15T02:13:03;72.57;;;38.67;;
5923;SDS011;2987;50.884;14.818;2023-02-15T02:15:39;79.40;;;41.20;;
5923;SDS011;2987;50.884;14.818;2023-02-15T02:18:37;71.10;;;39.00;;
5923;SDS011;2987;50.884;14.818;2023-02-15T02:21:25;71.97;;;39.23;;
5923;SDS011;2987;50.884;14.818;2023-02-15T02:24:18;68.70;;;36.77;;
5923;SDS011;2987;50.884;14.818;2023-02-15T02:41:06;68.33;;;38.03;;
5923;SDS011;2987;50.884;14.818;2023-02-15T02:43:47;70.13;;;38.53;;
5923;SDS011;2987;50.884;14.818;2023-02-15T02:49:01;60.47;;;36.33;;
5923;SDS011;2987;50.884;14.818;2023-02-15T02:51:30;60.13;;;34.90;;
5923;SDS011;2987;50.884;14.818;2023-02-15T02:53:58;65.97;;;36.70;;
5923;SDS011;2987;50.884;14.818;2023-02-15T02:56:32;64.80;;;36.30;;
5923;SDS011;2987;50.884;14.818;2023-02-15T03:01:55;62.37;;;35.23;;
5923;SDS011;2987;50.884;14.818;2023-02-15T03:04:34;54.10;;;33.30;;
5923;SDS011;2987;50.884;14.818;2023-02-15T03:12:08;58.13;;;32.57;;
5923;SDS011;2987;50.884;14.818;2023-02-15T03:14:43;55.33;;;31.27;;
5923;SDS011;2987;50.884;14.818;2023-02-15T03:17:12;52.63;;;31.80;;
5923;SDS011;2987;50.884;14.818;2023-02-15T03:19:39;56.53;;;33.57;;
5923;SDS011;2987;50.884;14.818;2023-02-15T03:22:08;54.60;;;32.57;;
5923;SDS011;2987;50.884;14.818;2023-02-15T03:24:51;58.80;;;33.17;;
5923;SDS011;2987;50.884;14.818;2023-02-15T03:27:24;55.83;;;33.50;;
5923;SDS011;2987;50.884;14.818;2023-02-15T03:30:00;59.17;;;35.17;;
5923;SDS011;2987;50.884;14.818;2023-02-15T03:32:29;54.93;;;33.20;;
5923;SDS011;2987;50.884;14.818;2023-02-15T03:34:58;58.23;;;34.40;;
5923;SDS011;2987;50.884;14.818;2023-02-15T03:37:26;57.23;;;33.70;;
5923;SDS011;2987;50.884;14.818;2023-02-15T03:40:03;56.87;;;32.67;;
5923;SDS011;2987;50.884;14.818;2023-02-15T03:43:00;58.43;;;34.13;;
5923;SDS011;2987;50.884;14.818;2023-02-15T03:45:36;59.37;;;34.30;;
5923;SDS011;2987;50.884;14.818;2023-02-15T03:48:05;58.50;;;33.63;;
5923;SDS011;2987;50.884;14.818;2023-02-15T03:50:33;57.63;;;34.73;;
5923;SDS011;2987;50.884;14.818;2023-02-15T03:53:23;58.87;;;34.30;;
5923;SDS011;2987;50.884;14.818;2023-02-15T03:55:53;63.07;;;35.17;;
5923;SDS011;2987;50.884;14.818;2023-02-15T03:58:20;58.80;;;34.80;;
5923;SDS011;2987;50.884;14.818;2023-02-15T04:01:10;61.80;;;34.70;;
5923;SDS011;2987;50.884;14.818;2023-02-15T04:04:07;58.27;;;33.77;;
5923;SDS011;2987;50.884;14.818;2023-02-15T04:06:43;62.03;;;34.23;;
5923;SDS011;2987;50.884;14.818;2023-02-15T04:09:09;62.00;;;35.37;;
5923;SDS011;2987;50.884;14.818;2023-02-15T04:11:56;66.17;;;36.23;;
5923;SDS011;2987;50.884;14.818;2023-02-15T04:14:22;65.53;;;36.93;;
5923;SDS011;2987;50.884;14.818;2023-02-15T04:17:07;60.43;;;36.10;;
5923;SDS011;2987;50.884;14.818;2023-02-15T04:19:37;67.43;;;35.20;;
5923;SDS011;2987;50.884;14.818;2023-02-15T04:22:22;62.53;;;35.63;;
5923;SDS011;2987;50.884;14.818;2023-02-15T04:25:07;64.37;;;35.70;;
5923;SDS011;2987;50.884;14.818;2023-02-15T04:27:36;65.20;;;36.67;;
5923;SDS011;2987;50.884;14.818;2023-02-15T04:30:03;66.13;;;35.67;;
5923;SDS011;2987;50.884;14.818;2023-02-15T04:32:30;65.43;;;37.27;;
5923;SDS011;2987;50.884;14.818;2023-02-15T04:34:56;65.00;;;34.90;;
5923;SDS011;2987;50.884;14.818;2023-02-15T04:37:22;67.23;;;38.20;;
5923;SDS011;2987;50.884;14.818;2023-02-15T04:39:48;66.47;;;37.27;;
5923;SDS011;2987;50.884;14.818;2023-02-15T04:42:15;68.83;;;36.80;;
5923;SDS011;2987;50.884;14.818;2023-02-15T04:44:42;64.90;;;38.27;;
5923;SDS011;2987;50.884;14.818;2023-02-15T04:47:08;64.63;;;38.20;;
5923;SDS011;2987;50.884;14.818;2023-02-15T04:49:34;63.40;;;36.30;;
5923;SDS011;2987;50.884;14.818;2023-02-15T04:52:01;66.33;;;37.83;;
5923;SDS011;2987;50.884;14.818;2023-02-15T04:54:27;65.33;;;37.23;;
5923;SDS011;2987;50.884;14.818;2023-02-15T04:56:53;63.10;;;37.57;;
5923;SDS011;2987;50.884;14.818;2023-02-15T04:59:19;63.60;;;36.63;;
5923;SDS011;2987;50.884;14.818;2023-02-15T05:01:45;65.57;;;37.43;;
5923;SDS011;2987;50.884;14.818;2023-02-15T05:04:11;69.50;;;37.17;;
5923;SDS011;2987;50.884;14.818;2023-02-15T05:06:38;71.20;;;38.43;;
5923;SDS011;2987;50.884;14.818;2023-02-15T05:09:04;66.60;;;37.97;;
5923;SDS011;2987;50.884;14.818;2023-02-15T05:11:30;65.80;;;36.93;;
5923;SDS011;2987;50.884;14.818;2023-02-15T05:13:56;65.40;;;37.27;;
5923;SDS011;2987;50.884;14.818;2023-02-15T05:16:23;65.23;;;37.60;;
5923;SDS011;2987;50.884;14.818;2023-02-15T05:18:49;64.33;;;37.53;;
5923;SDS011;2987;50.884;14.818;2023-02-15T05:21:15;66.80;;;36.20;;
5923;SDS011;2987;50.884;14.818;2023-02-15T05:23:42;73.10;;;37.77;;
5923;SDS011;2987;50.884;14.818;2023-02-15T05:26:10;64.97;;;36.30;;
5923;SDS011;2987;50.884;14.818;2023-02-15T05:28:58;65.07;;;37.03;;
5923;SDS011;2987;50.884;14.818;2023-02-15T05:31:24;69.90;;;38.23;;
5923;SDS011;2987;50.884;14.818;2023-02-15T05:33:50;69.23;;;37.97;;
5923;SDS011;2987;50.884;14.818;2023-02-15T05:36:16;61.50;;;34.90;;
5923;SDS011;2987;50.884;14.818;2023-02-15T05:38:43;65.63;;;36.67;;
5923;SDS011;2987;50.884;14.818;2023-02-15T05:41:10;62.00;;;36.00;;
5923;SDS011;2987;50.884;14.818;2023-02-15T05:43:37;64.60;;;36.43;;
5923;SDS011;2987;50.884;14.818;2023-02-15T05:46:03;69.07;;;38.07;;
5923;SDS011;2987;50.884;14.818;2023-02-15T05:48:31;60.30;;;35.63;;
5923;SDS011;2987;50.884;14.818;2023-02-15T05:50:58;61.07;;;33.97;;
5923;SDS011;2987;50.884;14.818;2023-02-15T05:53:29;60.33;;;35.00;;
5923;SDS011;2987;50.884;14.818;2023-02-15T05:55:56;69.37;;;36.60;;
5923;SDS011;2987;50.884;14.818;2023-02-15T05:58:25;65.23;;;36.70;;
5923;SDS011;2987;50.884;14.818;2023-02-15T06:00:53;64.87;;;35.90;;
5923;SDS011;2987;50.884;14.818;2023-02-15T06:03:19;65.17;;;36.33;;
5923;SDS011;2987;50.884;14.818;2023-02-15T06:05:45;55.83;;;33.50;;
5923;SDS011;2987;50.884;14.818;2023-02-15T06:08:11;62.47;;;35.97;;
5923;SDS011;2987;50.884;14.818;2023-02-15T06:10:37;64.20;;;36.07;;
5923;SDS011;2987;50.884;14.818;2023-02-15T06:13:06;60.73;;;34.07;;
5923;SDS011;2987;50.884;14.818;2023-02-15T06:15:32;55.10;;;33.10;;
5923;SDS011;2987;50.884;14.818;2023-02-15T06:17:58;61.50;;;34.77;;
5923;SDS011;2987;50.884;14.818;2023-02-15T06:20:25;61.30;;;34.33;;
5923;SDS011;2987;50.884;14.818;2023-02-15T06:22:52;61.63;;;35.30;;
5923;SDS011;2987;50.884;14.818;2023-02-15T06:25:18;61.60;;;34.43;;
5923;SDS011;2987;50.884;14.818;2023-02-15T06:27:44;56.60;;;33.77;;
5923;SDS011;2987;50.884;14.818;2023-02-15T06:30:10;55.83;;;32.23;;
5923;SDS011;2987;50.884;14.818;2023-02-15T06:32:37;60.70;;;34.80;;
5923;SDS011;2987;50.884;14.818;2023-02-15T06:35:04;60.13;;;34.87;;
5923;SDS011;2987;50.884;14.818;2023-02-15T06:37:30;63.77;;;35.60;;
5923;SDS011;2987;50.884;14.818;2023-02-15T06:39:56;61.73;;;35.47;;
5923;SDS011;2987;50.884;14.818;2023-02-15T06:42:23;59.67;;;35.17;;
5923;SDS011;2987;50.884;14.818;2023-02-15T06:44:49;59.97;;;34.07;;
5923;SDS011;2987;50.884;14.818;2023-02-15T06:47:16;61.77;;;35.57;;
5923;SDS011;2987;50.884;14.818;2023-02-15T06:49:42;59.67;;;33.93;;
5923;SDS011;2987;50.884;14.818;2023-02-15T06:52:08;60.47;;;34.83;;
5923;SDS011;2987;50.884;14.818;2023-02-15T06:54:34;61.23;;;34.83;;
5923;SDS011;2987;50.884;14.818;2023-02-15T06:57:00;56.23;;;33.07;;
5923;SDS011;2987;50.884;14.818;2023-02-15T06:59:27;59.37;;;34.40;;
5923;SDS011;2987;50.884;14.818;2023-02-15T07:01:53;58.83;;;34.67;;
5923;SDS011;2987;50.884;14.818;2023-02-15T07:04:19;58.27;;;34.47;;
5923;SDS011;2987;50.884;14.818;2023-02-15T07:06:46;59.50;;;34.03;;
5923;SDS011;2987;50.884;14.818;2023-02-15T07:09:12;64.80;;;36.30;;
5923;SDS011;2987;50.884;14.818;2023-02-15T07:11:38;59.57;;;35.03;;
5923;SDS011;2987;50.884;14.818;2023-02-15T07:14:24;60.10;;;35.77;;
5923;SDS011;2987;50.884;14.818;2023-02-15T07:16:50;58.30;;;34.23;;
5923;SDS011;2987;50.884;14.818;2023-02-15T07:19:16;60.53;;;35.20;;
5923;SDS011;2987;50.884;14.818;2023-02-15T07:21:42;55.90;;;34.17;;
5923;SDS011;2987;50.884;14.818;2023-02-15T07:24:11;61.60;;;34.80;;
5923;SDS011;2987;50.884;14.818;2023-02-15T07:26:37;61.83;;;34.60;;
5923;SDS011;2987;50.884;14.818;2023-02-15T07:29:03;66.83;;;37.63;;
5923;SDS011;2987;50.884;14.818;2023-02-15T07:31:29;58.23;;;35.37;;
5923;SDS011;2987;50.884;14.818;2023-02-15T07:33:55;63.23;;;36.73;;
5923;SDS011;2987;50.884;14.818;2023-02-15T07:36:21;60.40;;;35.13;;
5923;SDS011;2987;50.884;14.818;2023-02-15T07:38:47;65.97;;;37.30;;
5923;SDS011;2987;50.884;14.818;2023-02-15T07:41:14;59.40;;;34.73;;
5923;SDS011;2987;50.884;14.818;2023-02-15T07:43:42;62.17;;;35.27;;
5923;SDS011;2987;50.884;14.818;2023-02-15T07:46:11;60.50;;;34.30;;
5923;SDS011;2987;50.884;14.818;2023-02-15T07:48:40;60.13;;;35.17;;
5923;SDS011;2987;50.884;14.818;2023-02-15T07:51:08;59.23;;;35.30;;
5923;SDS011;2987;50.884;14.818;2023-02-15T07:53:36;58.20;;;34.90;;
5923;SDS011;2987;50.884;14.818;2023-02-15T07:56:04;56.97;;;35.07;;
5923;SDS011;2987;50.884;14.818;2023-02-15T07:58:32;58.20;;;35.47;;
5923;SDS011;2987;50.884;14.818;2023-02-15T08:01:21;60.10;;;34.57;;
5923;SDS011;2987;50.884;14.818;2023-02-15T08:03:49;52.40;;;32.40;;
5923;SDS011;2987;50.884;14.818;2023-02-15T08:06:15;57.73;;;34.10;;
5923;SDS011;2987;50.884;14.818;2023-02-15T08:08:42;58.33;;;34.50;;
5923;SDS011;2987;50.884;14.818;2023-02-15T08:11:14;53.97;;;33.97;;
5923;SDS011;2987;50.884;14.818;2023-02-15T08:14:04;58.90;;;35.70;;
5923;SDS011;2987;50.884;14.818;2023-02-15T08:16:35;58.27;;;34.57;;
5923;SDS011;2987;50.884;14.818;2023-02-15T08:19:13;58.97;;;34.83;;
5923;SDS011;2987;50.884;14.818;2023-02-15T08:21:44;58.20;;;34.70;;
5923;SDS011;2987;50.884;14.818;2023-02-15T08:24:12;55.03;;;33.47;;
5923;SDS011;2987;50.884;14.818;2023-02-15T08:26:40;53.03;;;31.57;;
5923;SDS011;2987;50.884;14.818;2023-02-15T08:29:07;56.70;;;34.93;;
5923;SDS011;2987;50.884;14.818;2023-02-15T08:31:34;56.37;;;32.73;;
5923;SDS011;2987;50.884;14.818;2023-02-15T08:34:02;57.90;;;34.77;;
5923;SDS011;2987;50.884;14.818;2023-02-15T08:36:30;54.87;;;32.17;;
5923;SDS011;2987;50.884;14.818;2023-02-15T08:38:57;55.63;;;33.73;;
5923;SDS011;2987;50.884;14.818;2023-02-15T08:41:26;58.10;;;33.80;;
5923;SDS011;2987;50.884;14.818;2023-02-15T08:43:56;59.07;;;33.47;;
5923;SDS011;2987;50.884;14.818;2023-02-15T08:46:25;55.47;;;33.50;;
5923;SDS011;2987;50.884;14.818;2023-02-15T08:48:53;53.40;;;33.80;;
5923;SDS011;2987;50.884;14.818;2023-02-15T08:51:21;57.73;;;34.10;;
5923;SDS011;2987;50.884;14.818;2023-02-15T08:53:50;53.10;;;32.13;;
5923;SDS011;2987;50.884;14.818;2023-02-15T08:56:19;54.17;;;34.27;;
5923;SDS011;2987;50.884;14.818;2023-02-15T08:58:54;58.07;;;33.67;;
5923;SDS011;2987;50.884;14.818;2023-02-15T09:01:22;58.57;;;33.80;;
5923;SDS011;2987;50.884;14.818;2023-02-15T09:03:51;58.53;;;34.67;;
5923;SDS011;2987;50.884;14.818;2023-02-15T09:06:21;53.33;;;31.60;;
5923;SDS011;2987;50.884;14.818;2023-02-15T09:08:49;56.83;;;33.77;;
5923;SDS011;2987;50.884;14.818;2023-02-15T09:11:18;53.90;;;33.33;;
5923;SDS011;2987;50.884;14.818;2023-02-15T09:13:49;56.70;;;33.67;;
5923;SDS011;2987;50.884;14.818;2023-02-15T09:16:19;58.30;;;34.27;;
5923;SDS011;2987;50.884;14.818;2023-02-15T09:18:47;65.87;;;34.27;;
5923;SDS011;2987;50.884;14.818;2023-02-15T09:21:16;59.30;;;34.90;;
5923;SDS011;2987;50.884;14.818;2023-02-15T09:23:45;58.10;;;34.90;;
5923;SDS011;2987;50.884;14.818;2023-02-15T09:26:14;58.77;;;35.10;;
5923;SDS011;2987;50.884;14.818;2023-02-15T09:28:42;59.30;;;34.50;;
5923;SDS011;2987;50.884;14.818;2023-02-15T09:31:13;58.57;;;34.93;;
5923;SDS011;2987;50.884;14.818;2023-02-15T09:36:33;55.13;;;33.67;;
5923;SDS011;2987;50.884;14.818;2023-02-15T09:39:06;53.97;;;33.77;;
5923;SDS011;2987;50.884;14.818;2023-02-15T09:44:39;55.60;;;34.13;;
5923;SDS011;2987;50.884;14.818;2023-02-15T09:50:25;51.43;;;31.77;;
5923;SDS011;2987;50.884;14.818;2023-02-15T09:53:15;50.97;;;32.00;;
5923;SDS011;2987;50.884;14.818;2023-02-15T10:01:23;55.77;;;34.97;;
5923;SDS011;2987;50.884;14.818;2023-02-15T10:12:39;55.80;;;35.47;;
5923;SDS011;2987;50.884;14.818;2023-02-15T10:15:28;54.53;;;35.00;;
5923;SDS011;2987;50.884;14.818;2023-02-15T10:29:09;57.17;;;33.70;;
5923;SDS011;2987;50.884;14.818;2023-02-15T10:34:47;56.03;;;34.00;;
5923;SDS011;2987;50.884;14.818;2023-02-15T10:37:31;57.97;;;34.93;;
5923;SDS011;2987;50.884;14.818;2023-02-15T10:59:23;54.90;;;33.30;;
5923;SDS011;2987;50.884;14.818;2023-02-15T11:02:17;59.03;;;34.37;;
5923;SDS011;2987;50.884;14.818;2023-02-15T11:05:16;60.53;;;35.40;;
5923;SDS011;2987;50.884;14.818;2023-02-15T11:13:19;53.60;;;33.90;;
5923;SDS011;2987;50.884;14.818;2023-02-15T11:15:51;62.70;;;36.13;;
5923;SDS011;2987;50.884;14.818;2023-02-15T11:18:37;59.77;;;36.73;;
5923;SDS011;2987;50.884;14.818;2023-02-15T11:24:07;60.07;;;36.63;;
5923;SDS011;2987;50.884;14.818;2023-02-15T11:26:38;61.40;;;36.67;;
5923;SDS011;2987;50.884;14.818;2023-02-15T11:34:31;62.57;;;38.33;;
5923;SDS011;2987;50.884;14.818;2023-02-15T11:37:05;59.97;;;35.23;;
5923;SDS011;2987;50.884;14.818;2023-02-15T11:39:35;56.37;;;35.47;;
5923;SDS011;2987;50.884;14.818;2023-02-15T11:42:04;57.73;;;35.20;;
5923;SDS011;2987;50.884;14.818;2023-02-15T11:44:43;59.20;;;35.33;;
5923;SDS011;2987;50.884;14.818;2023-02-15T11:47:19;59.73;;;35.20;;
5923;SDS011;2987;50.884;14.818;2023-02-15T11:49:45;57.80;;;35.63;;
5923;SDS011;2987;50.884;14.818;2023-02-15T11:52:12;60.83;;;37.13;;
5923;SDS011;2987;50.884;14.818;2023-02-15T11:54:41;61.23;;;36.50;;
5923;SDS011;2987;50.884;14.818;2023-02-15T11:57:28;56.10;;;34.23;;
5923;SDS011;2987;50.884;14.818;2023-02-15T12:00:02;56.63;;;34.80;;
5923;SDS011;2987;50.884;14.818;2023-02-15T12:02:39;62.83;;;36.67;;
5923;SDS011;2987;50.884;14.818;2023-02-15T12:05:12;61.43;;;36.83;;
5923;SDS011;2987;50.884;14.818;2023-02-15T12:07:46;67.07;;;38.40;;
5923;SDS011;2987;50.884;14.818;2023-02-15T12:10:25;65.57;;;37.37;;
5923;SDS011;2987;50.884;14.818;2023-02-15T12:13:08;65.97;;;39.10;;
5923;SDS011;2987;50.884;14.818;2023-02-15T12:15:38;62.73;;;36.60;;
5923;SDS011;2987;50.884;14.818;2023-02-15T12:18:30;65.00;;;36.63;;
5923;SDS011;2987;50.884;14.818;2023-02-15T12:21:02;68.90;;;38.03;;
5923;SDS011;2987;50.884;14.818;2023-02-15T12:23:32;65.67;;;37.97;;
5923;SDS011;2987;50.884;14.818;2023-02-15T12:26:00;60.63;;;36.87;;
5923;SDS011;2987;50.884;14.818;2023-02-15T12:28:32;60.93;;;37.10;;
5923;SDS011;2987;50.884;14.818;2023-02-15T12:31:02;66.43;;;38.07;;
5923;SDS011;2987;50.884;14.818;2023-02-15T12:33:35;64.47;;;37.27;;
5923;SDS011;2987;50.884;14.818;2023-02-15T12:36:12;63.03;;;35.77;;
5923;SDS011;2987;50.884;14.818;2023-02-15T12:44:21;60.80;;;36.13;;
5923;SDS011;2987;50.884;14.818;2023-02-15T12:46:56;68.50;;;38.13;;
5923;SDS011;2987;50.884;14.818;2023-02-15T12:54:46;69.70;;;39.87;;
5923;SDS011;2987;50.884;14.818;2023-02-15T12:57:14;63.20;;;36.57;;
5923;SDS011;2987;50.884;14.818;2023-02-15T13:02:31;62.73;;;36.73;;
5923;SDS011;2987;50.884;14.818;2023-02-15T13:05:14;61.23;;;35.83;;
5923;SDS011;2987;50.884;14.818;2023-02-15T13:07:58;67.77;;;38.73;;
5923;SDS011;2987;50.884;14.818;2023-02-15T13:10:33;62.33;;;35.70;;
5923;SDS011;2987;50.884;14.818;2023-02-15T13:13:08;70.33;;;38.70;;
5923;SDS011;2987;50.884;14.818;2023-02-15T13:15:38;66.47;;;37.87;;
5923;SDS011;2987;50.884;14.818;2023-02-15T13:18:11;66.70;;;37.57;;
5923;SDS011;2987;50.884;14.818;2023-02-15T13:20:42;62.17;;;36.57;;
5923;SDS011;2987;50.884;14.818;2023-02-15T13:23:20;70.17;;;37.33;;
5923;SDS011;2987;50.884;14.818;2023-02-15T13:25:54;66.00;;;37.73;;
5923;SDS011;2987;50.884;14.818;2023-02-15T13:28:24;63.90;;;35.73;;
5923;SDS011;2987;50.884;14.818;2023-02-15T13:31:00;67.30;;;37.83;;
5923;SDS011;2987;50.884;14.818;2023-02-15T13:33:30;66.47;;;37.53;;
5923;SDS011;2987;50.884;14.818;2023-02-15T13:36:19;63.30;;;36.90;;
5923;SDS011;2987;50.884;14.818;2023-02-15T13:44:41;63.07;;;36.33;;
5923;SDS011;2987;50.884;14.818;2023-02-15T13:47:36;63.20;;;35.17;;
5923;SDS011;2987;50.884;14.818;2023-02-15T13:53:07;61.90;;;35.53;;
5923;SDS011;2987;50.884;14.818;2023-02-15T13:55:54;63.57;;;35.63;;
5923;SDS011;2987;50.884;14.818;2023-02-15T14:21:13;61.47;;;35.63;;
5923;SDS011;2987;50.884;14.818;2023-02-15T14:23:50;66.17;;;36.43;;
5923;SDS011;2987;50.884;14.818;2023-02-15T14:26:57;68.60;;;37.10;;
5923;SDS011;2987;50.884;14.818;2023-02-15T14:32:46;66.50;;;36.63;;
5923;SDS011;2987;50.884;14.818;2023-02-15T14:35:17;61.40;;;34.43;;
5923;SDS011;2987;50.884;14.818;2023-02-15T14:40:55;67.57;;;36.50;;
5923;SDS011;2987;50.884;14.818;2023-02-15T14:59:53;67.10;;;36.33;;
5923;SDS011;2987;50.884;14.818;2023-02-15T15:05:17;68.70;;;35.10;;
5923;SDS011;2987;50.884;14.818;2023-02-15T15:07:49;68.13;;;36.30;;
5923;SDS011;2987;50.884;14.818;2023-02-15T15:10:34;72.60;;;37.03;;
5923;SDS011;2987;50.884;14.818;2023-02-15T15:16:23;69.63;;;36.13;;
5923;SDS011;2987;50.884;14.818;2023-02-15T15:18:51;68.33;;;36.97;;
5923;SDS011;2987;50.884;14.818;2023-02-15T15:57:25;74.10;;;38.27;;
5923;SDS011;2987;50.884;14.818;2023-02-15T15:59:55;76.07;;;38.07;;
5923;SDS011;2987;50.884;14.818;2023-02-15T16:02:26;81.83;;;39.63;;
5923;SDS011;2987;50.884;14.818;2023-02-15T16:04:53;80.93;;;39.47;;
5923;SDS011;2987;50.884;14.818;2023-02-15T16:07:22;77.23;;;37.47;;
5923;SDS011;2987;50.884;14.818;2023-02-15T16:09:54;72.57;;;37.27;;
5923;SDS011;2987;50.884;14.818;2023-02-15T16:12:24;79.13;;;38.70;;
5923;SDS011;2987;50.884;14.818;2023-02-15T16:14:52;78.27;;;38.37;;
5923;SDS011;2987;50.884;14.818;2023-02-15T16:17:23;84.07;;;37.73;;
5923;SDS011;2987;50.884;14.818;2023-02-15T16:19:53;76.57;;;37.67;;
5923;SDS011;2987;50.884;14.818;2023-02-15T16:22:31;82.07;;;39.37;;
5923;SDS011;2987;50.884;14.818;2023-02-15T16:25:03;83.23;;;40.07;;
5923;SDS011;2987;50.884;14.818;2023-02-15T16:30:22;78.30;;;37.70;;
5923;SDS011;2987;50.884;14.818;2023-02-15T16:32:53;77.57;;;38.63;;
5923;SDS011;2987;50.884;14.818;2023-02-15T16:37:54;84.00;;;39.87;;
5923;SDS011;2987;50.884;14.818;2023-02-15T16:42:50;85.17;;;41.73;;
5923;SDS011;2987;50.884;14.818;2023-02-15T16:45:19;78.13;;;37.80;;
5923;SDS011;2987;50.884;14.818;2023-02-15T16:47:48;89.77;;;40.23;;
5923;SDS011;2987;50.884;14.818;2023-02-15T16:50:20;91.67;;;39.93;;
5923;SDS011;2987;50.884;14.818;2023-02-15T16:52:49;79.27;;;39.20;;
5923;SDS011;2987;50.884;14.818;2023-02-15T16:55:20;78.17;;;38.60;;
5923;SDS011;2987;50.884;14.818;2023-02-15T16:57:49;82.77;;;39.07;;
5923;SDS011;2987;50.884;14.818;2023-02-15T17:00:18;90.03;;;40.57;;
5923;SDS011;2987;50.884;14.818;2023-02-15T17:05:54;82.07;;;39.40;;
5923;SDS011;2987;50.884;14.818;2023-02-15T17:08:33;76.87;;;36.67;;
5923;SDS011;2987;50.884;14.818;2023-02-15T17:16:29;84.70;;;38.93;;
5923;SDS011;2987;50.884;14.818;2023-02-15T17:18:59;89.43;;;41.63;;
5923;SDS011;2987;50.884;14.818;2023-02-15T17:21:30;95.00;;;40.33;;
5923;SDS011;2987;50.884;14.818;2023-02-15T17:24:01;90.57;;;40.57;;
5923;SDS011;2987;50.884;14.818;2023-02-15T17:26:31;90.70;;;40.40;;
5923;SDS011;2987;50.884;14.818;2023-02-15T17:29:02;84.60;;;39.67;;
5923;SDS011;2987;50.884;14.818;2023-02-15T17:31:38;88.27;;;38.60;;
5923;SDS011;2987;50.884;14.818;2023-02-15T17:34:04;91.57;;;40.43;;
5923;SDS011;2987;50.884;14.818;2023-02-15T17:36:31;86.90;;;40.47;;
5923;SDS011;2987;50.884;14.818;2023-02-15T17:39:01;82.07;;;39.77;;
5923;SDS011;2987;50.884;14.818;2023-02-15T17:41:32;89.07;;;40.60;;
5923;SDS011;2987;50.884;14.818;2023-02-15T17:44:00;85.33;;;40.97;;
5923;SDS011;2987;50.884;14.818;2023-02-15T17:46:29;94.03;;;41.03;;
5923;SDS011;2987;50.884;14.818;2023-02-15T17:49:00;93.17;;;41.00;;
5923;SDS011;2987;50.884;14.818;2023-02-15T17:51:27;92.03;;;41.67;;
5923;SDS011;2987;50.884;14.818;2023-02-15T17:53:53;92.63;;;42.20;;
5923;SDS011;2987;50.884;14.818;2023-02-15T17:56:39;91.83;;;41.20;;
5923;SDS011;2987;50.884;14.818;2023-02-15T17:59:06;93.87;;;40.80;;
5923;SDS011;2987;50.884;14.818;2023-02-15T18:01:33;91.77;;;40.67;;
5923;SDS011;2987;50.884;14.818;2023-02-15T18:04:20;84.83;;;40.17;;
5923;SDS011;2987;50.884;14.818;2023-02-15T18:07:07;90.97;;;40.20;;
5923;SDS011;2987;50.884;14.818;2023-02-15T18:09:53;92.73;;;40.50;;
5923;SDS011;2987;50.884;14.818;2023-02-15T18:12:38;92.97;;;40.83;;
5923;SDS011;2987;50.884;14.818;2023-02-15T18:15:04;94.40;;;42.07;;
5923;SDS011;2987;50.884;14.818;2023-02-15T18:17:32;100.23;;;43.17;;
5923;SDS011;2987;50.884;14.818;2023-02-15T18:20:02;98.03;;;42.97;;
5923;SDS011;2987;50.884;14.818;2023-02-15T18:22:32;91.57;;;40.60;;
5923;SDS011;2987;50.884;14.818;2023-02-15T18:24:58;99.80;;;43.57;;
5923;SDS011;2987;50.884;14.818;2023-02-15T18:27:25;94.77;;;41.87;;
5923;SDS011;2987;50.884;14.818;2023-02-15T18:29:51;99.23;;;42.43;;
5923;SDS011;2987;50.884;14.818;2023-02-15T18:32:18;87.67;;;40.87;;
5923;SDS011;2987;50.884;14.818;2023-02-15T18:34:51;94.80;;;42.27;;
5923;SDS011;2987;50.884;14.818;2023-02-15T18:37:20;94.50;;;42.50;;
5923;SDS011;2987;50.884;14.818;2023-02-15T18:39:48;91.70;;;41.27;;
5923;SDS011;2987;50.884;14.818;2023-02-15T18:42:21;90.97;;;41.17;;
5923;SDS011;2987;50.884;14.818;2023-02-15T18:44:54;93.80;;;41.50;;